createdAt,value
2022-12-22T00:01:15.529Z,-2.69
2022-12-22T00:02:37.778Z,-2.61
2022-12-22T00:03:53.398Z,-2.57
2022-12-22T00:05:08.874Z,-2.49
2022-12-22T00:06:28.219Z,-2.42
2022-12-22T00:07:43.343Z,-2.36
2022-12-22T00:09:05.073Z,-2.33
2022-12-22T00:10:20.616Z,-2.21
2022-12-22T00:11:35.811Z,-1.99
2022-12-22T00:12:51.302Z,-2.08
2022-12-22T00:14:06.730Z,-2.23
2022-12-22T00:15:23.557Z,-2.30
2022-12-22T00:16:39.097Z,-1.96
2022-12-22T00:17:54.295Z,-2.01
2022-12-22T00:19:09.794Z,-2.41
2022-12-22T00:20:39.119Z,-2.47
2022-12-22T00:21:54.594Z,-2.53
2022-12-22T00:23:09.659Z,-2.46
2022-12-22T00:24:25.047Z,-2.46
2022-12-22T00:25:39.907Z,-2.92
2022-12-22T00:26:55.342Z,-2.43
2022-12-22T00:28:10.887Z,-2.40
2022-12-22T00:29:33.073Z,-2.34
2022-12-22T00:30:48.572Z,-2.52
2022-12-22T00:32:04.294Z,-2.77
2022-12-22T00:33:21.466Z,-2.73
2022-12-22T00:34:41.309Z,-2.44
2022-12-22T00:35:56.804Z,-2.63
2022-12-22T00:37:11.603Z,-3.01
2022-12-22T00:38:33.011Z,-2.54
2022-12-22T00:39:47.960Z,-2.72
2022-12-22T00:41:02.909Z,-2.79
2022-12-22T00:42:18.174Z,-2.78
2022-12-22T00:43:33.563Z,-2.70
2022-12-22T00:44:48.463Z,-2.63
2022-12-22T00:46:03.725Z,-3.15
2022-12-22T00:47:19.009Z,-2.64
2022-12-22T00:48:41.135Z,-2.55
2022-12-22T00:49:59.643Z,-2.54
2022-12-22T00:51:14.817Z,-2.83
2022-12-22T00:52:30.683Z,-2.86
2022-12-22T00:53:45.582Z,-2.87
2022-12-22T00:55:01.689Z,-2.85
2022-12-22T00:56:16.814Z,-2.84
2022-12-22T00:57:38.320Z,-2.65
2022-12-22T00:58:54.515Z,-2.71
2022-12-22T01:00:11.760Z,-2.87
2022-12-22T01:01:29.505Z,-2.93
2022-12-22T01:02:44.657Z,-2.70
2022-12-22T01:04:00.004Z,-2.81
2022-12-22T01:05:15.343Z,-2.88
2022-12-22T01:06:30.741Z,-2.91
2022-12-22T01:07:46.111Z,-2.87
2022-12-22T01:09:01.845Z,-2.89
2022-12-22T01:10:17.394Z,-2.87
2022-12-22T01:11:32.650Z,-2.83
2022-12-22T01:12:56.050Z,-2.87
2022-12-22T01:14:11.108Z,-2.90
2022-12-22T01:15:32.166Z,-2.80
2022-12-22T01:16:47.572Z,-2.80
2022-12-22T01:18:02.997Z,-2.85
2022-12-22T01:19:18.012Z,-2.98
2022-12-22T01:20:33.152Z,-2.78
2022-12-22T01:21:48.569Z,-2.76
2022-12-22T01:23:03.573Z,-2.86
2022-12-22T01:24:18.699Z,-3.08
2022-12-22T01:25:36.591Z,-2.87
2022-12-22T01:26:51.895Z,-2.57
2022-12-22T01:28:07.296Z,-2.10
2022-12-22T01:29:22.294Z,-1.94
2022-12-22T01:30:37.199Z,-2.48
2022-12-22T01:31:52.681Z,-2.22
2022-12-22T01:33:07.749Z,-2.48
2022-12-22T01:34:22.910Z,-2.09
2022-12-22T01:35:43.515Z,-1.88
2022-12-22T01:36:58.467Z,-1.79
2022-12-22T01:38:13.797Z,-1.93
2022-12-22T01:39:28.543Z,-2.60
2022-12-22T01:40:43.962Z,-2.66
2022-12-22T01:41:59.276Z,-2.79
2022-12-22T01:43:14.193Z,-2.72
2022-12-22T01:44:34.825Z,-2.68
2022-12-22T01:45:54.344Z,-2.79
2022-12-22T01:47:09.317Z,-2.78
2022-12-22T01:48:29.351Z,-2.90
2022-12-22T01:50:01.284Z,-2.87
2022-12-22T01:51:20.333Z,-2.96
2022-12-22T01:52:37.795Z,-3.02
2022-12-22T01:53:53.646Z,-3.00
2022-12-22T01:55:09.359Z,-3.14
2022-12-22T01:56:25.396Z,-3.20
2022-12-22T01:57:40.895Z,-3.05
2022-12-22T01:59:00.858Z,-3.25
2022-12-22T02:00:16.164Z,-2.95
2022-12-22T02:01:31.708Z,-2.96
2022-12-22T02:02:49.968Z,-3.03
2022-12-22T02:04:05.045Z,-3.02
2022-12-22T02:05:23.087Z,-4.09
2022-12-22T02:06:54.619Z,-3.53
2022-12-22T02:08:41.821Z,-3.32
2022-12-22T02:10:27.528Z,-3.26
2022-12-22T02:12:11.198Z,-3.05
2022-12-22T02:13:48.214Z,-3.13
2022-12-22T02:15:20.305Z,-3.05
2022-12-22T02:16:52.151Z,-3.07
2022-12-22T02:18:46.971Z,-2.94
2022-12-22T02:20:26.978Z,-2.80
2022-12-22T02:21:44.313Z,-2.63
2022-12-22T02:23:11.462Z,-2.75
2022-12-22T02:24:35.042Z,-2.97
2022-12-22T02:26:00.238Z,-2.98
2022-12-22T02:27:19.605Z,-2.93
2022-12-22T02:28:35.148Z,-2.94
2022-12-22T02:29:55.668Z,-2.83
2022-12-22T02:31:11.645Z,-3.14
2022-12-22T02:32:26.947Z,-2.75
2022-12-22T02:33:43.407Z,-2.70
2022-12-22T02:34:58.491Z,-2.50
2022-12-22T02:36:38.306Z,-2.17
2022-12-22T02:38:24.375Z,-2.18
2022-12-22T02:39:54.927Z,-2.35
2022-12-22T02:41:32.171Z,-2.06
2022-12-22T02:42:50.430Z,-1.93
2022-12-22T02:44:44.322Z,-1.85
2022-12-22T02:46:22.335Z,-1.75
2022-12-22T02:48:06.118Z,-1.71
2022-12-22T02:49:40.166Z,-1.71
2022-12-22T02:51:03.736Z,-1.71
2022-12-22T02:52:34.746Z,-1.94
2022-12-22T02:53:50.733Z,-2.50
2022-12-22T02:55:05.821Z,-2.87
2022-12-22T02:56:29.627Z,-2.66
2022-12-22T02:57:45.177Z,-2.81
2022-12-22T02:59:00.109Z,-2.86
2022-12-22T03:00:15.265Z,-2.86
2022-12-22T03:01:30.676Z,-2.83
2022-12-22T03:02:45.797Z,-2.72
2022-12-22T03:04:01.376Z,-3.04
2022-12-22T03:05:16.718Z,-3.16
2022-12-22T03:06:32.169Z,-3.02
2022-12-22T03:07:47.092Z,-2.97
2022-12-22T03:09:01.981Z,-3.07
2022-12-22T03:10:17.462Z,-3.19
2022-12-22T03:11:32.382Z,-3.11
2022-12-22T03:12:47.520Z,-3.38
2022-12-22T03:14:02.650Z,-3.17
2022-12-22T03:15:17.467Z,-3.07
2022-12-22T03:16:32.450Z,-3.26
2022-12-22T03:17:47.861Z,-3.17
2022-12-22T03:19:03.095Z,-3.28
2022-12-22T03:20:18.273Z,-3.29
2022-12-22T03:21:34.541Z,-3.29
2022-12-22T03:22:49.451Z,-3.27
2022-12-22T03:24:04.866Z,-3.19
2022-12-22T03:25:19.844Z,-3.23
2022-12-22T03:26:16.440Z,-3.64
2022-12-22T03:27:13.197Z,-3.31
2022-12-22T03:28:09.951Z,-3.20
2022-12-22T03:29:06.990Z,-3.27
2022-12-22T03:30:04.263Z,-3.69
2022-12-22T03:31:05.077Z,-3.32
2022-12-22T03:32:01.999Z,-3.36
2022-12-22T03:32:58.922Z,-3.33
2022-12-22T03:33:55.674Z,-3.36
2022-12-22T03:34:52.239Z,-3.33
2022-12-22T03:35:48.879Z,-3.58
2022-12-22T03:36:45.488Z,-3.37
2022-12-22T03:37:42.079Z,-3.33
2022-12-22T03:38:38.691Z,-3.36
2022-12-22T03:39:35.912Z,-3.42
2022-12-22T03:40:32.912Z,-3.38
2022-12-22T03:41:48.038Z,-3.37
2022-12-22T03:43:03.640Z,-3.37
2022-12-22T03:44:18.829Z,-3.23
2022-12-22T03:45:34.212Z,-3.18
2022-12-22T03:46:30.875Z,-3.15
2022-12-22T03:47:27.537Z,-3.58
2022-12-22T03:48:24.144Z,-3.24
2022-12-22T03:49:22.483Z,-3.31
2022-12-22T03:50:19.071Z,-3.21
2022-12-22T03:51:15.654Z,-3.60
2022-12-22T03:52:12.279Z,-3.32
2022-12-22T03:53:08.843Z,-3.36
2022-12-22T03:54:05.497Z,-3.59
2022-12-22T03:55:02.407Z,-3.47
2022-12-22T03:56:04.099Z,-3.47
2022-12-22T03:57:04.103Z,-3.50
2022-12-22T03:58:00.746Z,-3.50
2022-12-22T03:58:57.466Z,-3.51
2022-12-22T03:59:53.999Z,-3.52
2022-12-22T04:00:50.692Z,-3.60
2022-12-22T04:01:50.593Z,-3.80
2022-12-22T04:02:47.337Z,-3.62
2022-12-22T04:03:43.987Z,-3.80
2022-12-22T04:04:40.674Z,-3.48
2022-12-22T04:05:37.389Z,-3.44
2022-12-22T04:06:33.997Z,-3.48
2022-12-22T04:07:30.708Z,-3.45
2022-12-22T04:08:27.373Z,-3.37
2022-12-22T04:09:24.933Z,-3.35
2022-12-22T04:10:39.870Z,-3.44
2022-12-22T04:11:55.114Z,-3.23
2022-12-22T04:12:55.443Z,-3.33
2022-12-22T04:13:51.996Z,-3.27
2022-12-22T04:14:48.554Z,-3.16
2022-12-22T04:15:45.100Z,-3.07
2022-12-22T04:16:41.810Z,-3.02
2022-12-22T04:17:38.643Z,-3.26
2022-12-22T04:18:35.224Z,-3.23
2022-12-22T04:19:32.052Z,-3.11
2022-12-22T04:20:28.970Z,-3.06
2022-12-22T04:21:26.104Z,-3.11
2022-12-22T04:22:22.680Z,-3.49
2022-12-22T04:23:19.313Z,-3.17
2022-12-22T04:24:16.202Z,-3.24
2022-12-22T04:25:13.491Z,-3.43
2022-12-22T04:26:10.380Z,-3.68
2022-12-22T04:27:06.945Z,-3.43
2022-12-22T04:28:03.629Z,-3.38
2022-12-22T04:29:00.325Z,-3.36
2022-12-22T04:29:57.014Z,-3.32
2022-12-22T04:30:53.574Z,-3.39
2022-12-22T04:31:50.426Z,-3.43
2022-12-22T04:32:47.250Z,-3.69
2022-12-22T04:33:43.907Z,-3.41
2022-12-22T04:34:40.516Z,-3.33
2022-12-22T04:35:37.171Z,-3.32
2022-12-22T04:36:33.783Z,-3.30
2022-12-22T04:37:30.333Z,-3.27
2022-12-22T04:38:26.961Z,-3.33
2022-12-22T04:39:23.580Z,-3.24
2022-12-22T04:40:20.157Z,-3.17
2022-12-22T04:41:16.701Z,-3.03
2022-12-22T04:42:13.397Z,-3.49
2022-12-22T04:43:10.033Z,-3.00
2022-12-22T04:44:07.010Z,-3.12
2022-12-22T04:45:05.447Z,-3.10
2022-12-22T04:46:02.154Z,-3.33
2022-12-22T04:46:58.815Z,-3.37
2022-12-22T04:47:55.447Z,-3.93
2022-12-22T04:48:56.192Z,-3.33
2022-12-22T04:49:56.118Z,-3.49
2022-12-22T04:50:55.172Z,-3.65
2022-12-22T04:51:51.830Z,-3.67
2022-12-22T04:52:48.409Z,-3.66
2022-12-22T04:53:44.983Z,-3.82
2022-12-22T04:54:41.543Z,-3.74
2022-12-22T04:55:38.104Z,-3.77
2022-12-22T04:56:34.691Z,-3.84
2022-12-22T04:57:34.332Z,-3.84
2022-12-22T04:58:35.982Z,-3.76
2022-12-22T04:59:32.594Z,-4.27
2022-12-22T05:00:29.173Z,-3.68
2022-12-22T05:01:26.105Z,-3.70
2022-12-22T05:02:22.872Z,-3.60
2022-12-22T05:03:20.069Z,-3.58
2022-12-22T05:04:23.367Z,-3.46
2022-12-22T05:05:20.342Z,-3.27
2022-12-22T05:06:16.963Z,-3.27
2022-12-22T05:07:13.593Z,-3.90
2022-12-22T05:08:10.617Z,-3.23
2022-12-22T05:09:07.233Z,-3.36
2022-12-22T05:10:06.910Z,-3.01
2022-12-22T05:11:03.876Z,-2.79
2022-12-22T05:12:00.467Z,-2.73
2022-12-22T05:12:57.845Z,-2.69
2022-12-22T05:13:54.430Z,-2.56
2022-12-22T05:14:51.195Z,-2.78
2022-12-22T05:15:47.787Z,-2.84
2022-12-22T05:16:44.443Z,-2.65
2022-12-22T05:17:41.066Z,-2.46
2022-12-22T05:18:38.761Z,-3.06
2022-12-22T05:19:35.343Z,-3.03
2022-12-22T05:20:32.118Z,-3.19
2022-12-22T05:21:28.730Z,-4.01
2022-12-22T05:22:25.341Z,-3.48
2022-12-22T05:23:21.984Z,-3.90
2022-12-22T05:24:18.595Z,-3.60
2022-12-22T05:25:19.924Z,-3.59
2022-12-22T05:26:19.190Z,-3.60
2022-12-22T05:27:15.827Z,-3.89
2022-12-22T05:28:12.447Z,-3.39
2022-12-22T05:29:09.037Z,-3.47
2022-12-22T05:30:06.341Z,-3.12
2022-12-22T05:31:20.313Z,-3.28
2022-12-22T05:32:17.088Z,-3.44
2022-12-22T05:33:13.807Z,-3.60
2022-12-22T05:34:10.419Z,-3.58
2022-12-22T05:35:08.105Z,-3.59
2022-12-22T05:36:04.934Z,-3.66
2022-12-22T05:37:01.542Z,-3.64
2022-12-22T05:37:58.435Z,-3.57
2022-12-22T05:38:54.999Z,-3.54
2022-12-22T05:39:51.527Z,-3.56
2022-12-22T05:40:48.538Z,-3.50
2022-12-22T05:41:45.332Z,-3.55
2022-12-22T05:42:42.046Z,-3.79
2022-12-22T05:43:39.124Z,-3.60
2022-12-22T05:44:35.711Z,-3.58
2022-12-22T05:45:32.322Z,-3.66
2022-12-22T05:46:28.935Z,-3.61
2022-12-22T05:47:25.520Z,-3.58
2022-12-22T05:48:28.317Z,-3.63
2022-12-22T05:49:27.619Z,-3.69
2022-12-22T05:50:26.049Z,-3.80
2022-12-22T05:51:22.655Z,-3.85
2022-12-22T05:52:19.248Z,-3.86
2022-12-22T05:53:15.874Z,-3.85
2022-12-22T05:54:12.794Z,-3.87
2022-12-22T05:55:10.395Z,-4.08
2022-12-22T05:56:07.875Z,-3.90
2022-12-22T05:57:04.522Z,-3.99
2022-12-22T05:58:02.311Z,-3.91
2022-12-22T05:58:58.882Z,-3.86
2022-12-22T05:59:55.654Z,-3.83
2022-12-22T06:00:52.275Z,-3.73
2022-12-22T06:01:48.861Z,-3.86
2022-12-22T06:02:45.740Z,-3.60
2022-12-22T06:03:42.491Z,-3.46
2022-12-22T06:04:39.223Z,-3.43
2022-12-22T06:05:35.812Z,-3.56
2022-12-22T06:06:32.432Z,-3.60
2022-12-22T06:07:29.034Z,-3.60
2022-12-22T06:08:26.482Z,-3.65
2022-12-22T06:09:23.196Z,-3.65
2022-12-22T06:10:19.828Z,-3.97
2022-12-22T06:11:18.375Z,-3.90
2022-12-22T06:12:15.054Z,-3.38
2022-12-22T06:13:11.697Z,-3.31
2022-12-22T06:14:08.458Z,-3.41
2022-12-22T06:15:05.962Z,-3.69
2022-12-22T06:16:02.649Z,-3.29
2022-12-22T06:16:59.274Z,-3.36
2022-12-22T06:17:55.905Z,-3.35
2022-12-22T06:18:52.464Z,-3.39
2022-12-22T06:19:49.061Z,-3.41
2022-12-22T06:20:47.026Z,-3.41
2022-12-22T06:21:43.614Z,-3.38
2022-12-22T06:22:40.437Z,-3.36
2022-12-22T06:23:36.993Z,-3.25
2022-12-22T06:24:33.633Z,-2.96
2022-12-22T06:25:30.202Z,-2.88
2022-12-22T06:26:26.731Z,-2.64
2022-12-22T06:27:23.466Z,-2.50
2022-12-22T06:28:20.083Z,-2.61
2022-12-22T06:29:16.822Z,-2.44
2022-12-22T06:30:15.492Z,-2.71
2022-12-22T06:31:12.319Z,-2.55
2022-12-22T06:32:08.987Z,-2.53
2022-12-22T06:33:05.543Z,-2.40
2022-12-22T06:34:02.159Z,-2.29
2022-12-22T06:34:58.813Z,-2.28
2022-12-22T06:35:59.040Z,-2.32
2022-12-22T06:36:56.145Z,-2.26
2022-12-22T06:37:52.702Z,-2.28
2022-12-22T06:38:49.975Z,-2.30
2022-12-22T06:39:47.319Z,-2.26
2022-12-22T06:40:43.972Z,-2.25
2022-12-22T06:41:59.603Z,-2.12
2022-12-22T06:43:11.333Z,-2.13
2022-12-22T06:44:07.845Z,-2.19
2022-12-22T06:45:04.853Z,-2.08
2022-12-22T06:46:01.567Z,-2.05
2022-12-22T06:46:58.249Z,-2.39
2022-12-22T06:47:54.985Z,-2.02
2022-12-22T06:48:52.241Z,-2.05
2022-12-22T06:49:49.711Z,-2.03
2022-12-22T06:50:46.499Z,-1.99
2022-12-22T06:51:43.139Z,-2.08
2022-12-22T06:52:39.888Z,-2.00
2022-12-22T06:53:36.450Z,-1.99
2022-12-22T06:54:33.089Z,-2.02
2022-12-22T06:55:29.799Z,-1.95
2022-12-22T06:56:26.400Z,-1.93
2022-12-22T06:57:23.015Z,-2.18
2022-12-22T06:58:19.569Z,-2.05
2022-12-22T06:59:16.189Z,-1.77
2022-12-22T07:00:13.207Z,-1.78
2022-12-22T07:01:09.799Z,-1.81
2022-12-22T07:02:07.034Z,-1.59
2022-12-22T07:03:03.934Z,-1.59
2022-12-22T07:04:00.934Z,-1.54
2022-12-22T07:04:57.745Z,-1.49
2022-12-22T07:05:54.311Z,-1.54
2022-12-22T07:06:51.013Z,-1.49
2022-12-22T07:07:47.683Z,-1.39
2022-12-22T07:08:45.345Z,-1.40
2022-12-22T07:09:41.893Z,-1.41
2022-12-22T07:10:56.807Z,-1.40
2022-12-22T07:11:53.404Z,-1.39
2022-12-22T07:12:50.085Z,-1.30
2022-12-22T07:13:47.893Z,-1.22
2022-12-22T07:14:44.461Z,-1.07
2022-12-22T07:15:41.026Z,-1.03
2022-12-22T07:16:37.682Z,-1.32
2022-12-22T07:17:34.340Z,-1.08
2022-12-22T07:18:33.294Z,-1.30
2022-12-22T07:19:29.941Z,-1.00
2022-12-22T07:20:26.609Z,-0.99
2022-12-22T07:21:23.263Z,-1.05
2022-12-22T07:22:25.642Z,-1.00
2022-12-22T07:23:26.749Z,-0.87
2022-12-22T07:24:26.036Z,-0.81
2022-12-22T07:25:22.705Z,-0.62
2022-12-22T07:26:19.366Z,-0.72
2022-12-22T07:27:16.311Z,-0.87
2022-12-22T07:28:16.659Z,-1.02
2022-12-22T07:29:17.175Z,-1.11
2022-12-22T07:30:14.135Z,-0.94
2022-12-22T07:31:12.028Z,-0.92
2022-12-22T07:32:08.778Z,-0.95
2022-12-22T07:33:05.482Z,-0.94
2022-12-22T07:34:02.113Z,-0.92
2022-12-22T07:35:04.741Z,-0.90
2022-12-22T07:36:12.514Z,-0.89
2022-12-22T07:37:09.064Z,-0.95
2022-12-22T07:38:05.659Z,-0.97
2022-12-22T07:39:02.661Z,-0.96
2022-12-22T07:39:59.393Z,-0.91
2022-12-22T07:41:04.504Z,-0.81
2022-12-22T07:42:19.967Z,-0.89
2022-12-22T07:43:16.567Z,-0.74
2022-12-22T07:44:13.222Z,-0.73
2022-12-22T07:45:10.791Z,-0.65
2022-12-22T07:46:07.615Z,-0.55
2022-12-22T07:47:04.437Z,-0.57
2022-12-22T07:48:02.379Z,-0.57
2022-12-22T07:49:18.248Z,-0.60
2022-12-22T07:50:29.884Z,-0.41
2022-12-22T07:51:26.694Z,-0.32
2022-12-22T07:52:23.388Z,-0.37
2022-12-22T07:53:20.074Z,-0.26
2022-12-22T07:54:17.259Z,-0.21
2022-12-22T07:55:14.310Z,0.03
2022-12-22T07:56:10.964Z,0.18
2022-12-22T07:57:07.604Z,0.39
2022-12-22T07:58:04.188Z,0.26
2022-12-22T07:59:01.249Z,0.30
2022-12-22T07:59:57.868Z,0.49
2022-12-22T08:01:01.520Z,0.57
2022-12-22T08:01:58.305Z,0.47
2022-12-22T08:02:56.637Z,0.53
2022-12-22T08:03:53.291Z,0.55
2022-12-22T08:04:49.968Z,0.36
2022-12-22T08:05:46.665Z,0.04
2022-12-22T08:06:43.224Z,0.06
2022-12-22T08:07:39.843Z,0.04
2022-12-22T08:08:36.561Z,-0.11
2022-12-22T08:09:33.242Z,-0.01
2022-12-22T08:10:29.870Z,0.05
2022-12-22T08:11:26.742Z,0.15
2022-12-22T08:12:23.373Z,0.12
2022-12-22T08:13:20.583Z,0.25
2022-12-22T08:14:17.264Z,0.32
2022-12-22T08:15:13.912Z,0.43
2022-12-22T08:16:12.665Z,0.38
2022-12-22T08:17:09.283Z,0.33
2022-12-22T08:18:05.948Z,0.31
2022-12-22T08:19:04.922Z,0.52
2022-12-22T08:20:01.753Z,0.35
2022-12-22T08:20:58.420Z,0.32
2022-12-22T08:21:55.008Z,0.59
2022-12-22T08:22:51.683Z,0.05
2022-12-22T08:23:48.248Z,0.38
2022-12-22T08:24:44.905Z,0.41
2022-12-22T08:25:41.572Z,0.40
2022-12-22T08:26:44.159Z,0.46
2022-12-22T08:27:50.905Z,0.61
2022-12-22T08:28:55.028Z,0.43
2022-12-22T08:29:55.606Z,0.33
2022-12-22T08:30:52.517Z,0.30
2022-12-22T08:31:49.491Z,0.23
2022-12-22T08:32:48.234Z,0.47
2022-12-22T08:33:45.284Z,0.67
2022-12-22T08:34:42.588Z,0.88
2022-12-22T08:35:39.369Z,0.82
2022-12-22T08:36:41.946Z,0.59
2022-12-22T08:37:42.950Z,0.50
2022-12-22T08:38:42.401Z,0.74
2022-12-22T08:39:41.832Z,0.64
2022-12-22T08:40:38.924Z,0.48
2022-12-22T08:41:52.194Z,0.47
2022-12-22T08:42:51.622Z,0.73
2022-12-22T08:43:48.248Z,1.08
2022-12-22T08:44:46.069Z,0.93
2022-12-22T08:45:42.974Z,0.72
2022-12-22T08:46:39.660Z,0.90
2022-12-22T08:47:36.310Z,0.98
2022-12-22T08:48:33.143Z,1.22
2022-12-22T08:49:29.720Z,1.20
2022-12-22T08:50:26.467Z,1.33
2022-12-22T08:51:23.381Z,1.49
2022-12-22T08:52:19.991Z,1.62
2022-12-22T08:53:45.227Z,1.43
2022-12-22T08:54:33.793Z,1.75
2022-12-22T08:55:30.568Z,1.90
2022-12-22T08:56:27.170Z,1.68
2022-12-22T08:57:23.755Z,1.74
2022-12-22T08:58:21.359Z,1.86
2022-12-22T08:59:18.191Z,1.84
2022-12-22T09:00:15.397Z,1.61
2022-12-22T09:01:23.647Z,1.66
2022-12-22T09:02:20.345Z,1.69
2022-12-22T09:03:17.014Z,1.69
2022-12-22T09:04:15.487Z,1.66
2022-12-22T09:05:12.129Z,1.71
2022-12-22T09:06:08.822Z,1.97
2022-12-22T09:07:05.759Z,2.32
2022-12-22T09:08:02.740Z,2.27
2022-12-22T09:09:03.256Z,1.89
2022-12-22T09:09:59.901Z,1.74
2022-12-22T09:10:56.650Z,1.74
2022-12-22T09:11:53.310Z,2.33
2022-12-22T09:12:51.440Z,2.29
2022-12-22T09:13:51.302Z,1.93
2022-12-22T09:14:47.860Z,1.72
2022-12-22T09:15:44.402Z,1.74
2022-12-22T09:16:41.329Z,1.74
2022-12-22T09:17:38.018Z,2.13
2022-12-22T09:18:34.860Z,2.22
2022-12-22T09:19:31.506Z,2.18
2022-12-22T09:20:28.093Z,2.12
2022-12-22T09:21:25.376Z,2.05
2022-12-22T09:22:28.209Z,1.91
2022-12-22T09:23:25.956Z,2.12
2022-12-22T09:24:22.538Z,2.13
2022-12-22T09:25:19.068Z,1.97
2022-12-22T09:26:18.573Z,2.02
2022-12-22T09:27:15.126Z,1.89
2022-12-22T09:28:12.267Z,2.01
2022-12-22T09:29:08.998Z,2.36
2022-12-22T09:30:06.327Z,1.96
2022-12-22T09:31:03.557Z,2.19
2022-12-22T09:32:00.289Z,2.30
2022-12-22T09:32:56.900Z,2.47
2022-12-22T09:33:54.073Z,2.52
2022-12-22T09:34:50.617Z,2.45
2022-12-22T09:35:47.327Z,2.55
2022-12-22T09:36:44.199Z,2.45
2022-12-22T09:37:40.942Z,2.72
2022-12-22T09:38:39.094Z,2.80
2022-12-22T09:39:35.754Z,2.96
2022-12-22T09:40:32.842Z,2.82
2022-12-22T09:41:37.216Z,2.84
2022-12-22T09:42:35.630Z,2.89
2022-12-22T09:43:32.245Z,2.61
2022-12-22T09:44:33.653Z,2.43
2022-12-22T09:45:31.243Z,2.50
2022-12-22T09:46:31.619Z,2.99
2022-12-22T09:47:37.826Z,2.57
2022-12-22T09:48:37.212Z,2.43
2022-12-22T09:49:33.908Z,2.32
2022-12-22T09:50:33.108Z,2.33
2022-12-22T09:51:31.123Z,3.10
2022-12-22T09:52:33.725Z,3.06
2022-12-22T09:53:31.161Z,2.93
2022-12-22T09:54:29.164Z,2.84
2022-12-22T09:55:25.871Z,2.86
2022-12-22T09:56:25.305Z,2.81
2022-12-22T09:57:26.639Z,2.63
2022-12-22T09:58:30.584Z,2.40
2022-12-22T09:59:28.732Z,2.58
2022-12-22T10:00:27.138Z,2.61
2022-12-22T10:01:58.225Z,2.84
2022-12-22T10:03:14.196Z,3.01
2022-12-22T10:04:43.052Z,2.84
2022-12-22T10:05:54.070Z,2.81
2022-12-22T10:07:26.114Z,3.00
2022-12-22T10:08:30.039Z,2.98
2022-12-22T10:09:49.562Z,3.12
2022-12-22T10:10:46.224Z,3.49
2022-12-22T10:11:57.347Z,3.59
2022-12-22T10:13:05.422Z,3.36
2022-12-22T10:14:02.004Z,3.34
2022-12-22T10:14:58.647Z,3.54
2022-12-22T10:15:56.069Z,3.67
2022-12-22T10:17:31.236Z,3.69
2022-12-22T10:18:29.913Z,3.69
2022-12-22T10:19:26.518Z,3.90
2022-12-22T10:20:28.301Z,4.08
2022-12-22T10:21:26.311Z,3.71
2022-12-22T10:22:32.173Z,3.52
2022-12-22T10:23:30.662Z,3.67
2022-12-22T10:24:29.356Z,3.61
2022-12-22T10:26:08.851Z,3.49
2022-12-22T10:26:57.525Z,3.64
2022-12-22T10:27:59.858Z,4.05
2022-12-22T10:29:06.011Z,3.90
2022-12-22T10:30:38.745Z,3.76
2022-12-22T10:31:39.582Z,3.77
2022-12-22T10:32:36.337Z,3.78
2022-12-22T10:33:34.764Z,3.80
2022-12-22T10:34:31.532Z,3.72
2022-12-22T10:35:42.436Z,4.42
2022-12-22T10:36:39.761Z,4.36
2022-12-22T10:37:39.943Z,4.40
2022-12-22T10:38:52.032Z,4.56
2022-12-22T10:39:48.646Z,4.32
2022-12-22T10:40:47.952Z,4.04
2022-12-22T10:41:48.783Z,4.05
2022-12-22T10:42:53.807Z,3.95
2022-12-22T10:43:53.698Z,4.05
2022-12-22T10:44:50.765Z,4.08
2022-12-22T10:45:49.204Z,3.81
2022-12-22T10:46:45.723Z,4.00
2022-12-22T10:47:48.694Z,4.19
2022-12-22T10:48:45.766Z,4.04
2022-12-22T10:49:45.656Z,4.28
2022-12-22T10:50:48.510Z,4.46
2022-12-22T10:52:08.261Z,4.17
2022-12-22T10:53:06.286Z,4.09
2022-12-22T10:54:03.087Z,4.18
2022-12-22T10:55:18.502Z,4.28
2022-12-22T10:56:30.861Z,4.32
2022-12-22T10:57:30.443Z,4.02
2022-12-22T10:58:28.560Z,4.10
2022-12-22T10:59:25.336Z,3.88
2022-12-22T11:00:30.989Z,4.03
2022-12-22T11:01:33.098Z,4.22
2022-12-22T11:02:38.378Z,4.08
2022-12-22T11:03:35.371Z,4.38
2022-12-22T11:04:32.090Z,4.60
2022-12-22T11:05:29.696Z,4.27
2022-12-22T11:06:26.416Z,4.46
2022-12-22T11:07:24.405Z,4.74
2022-12-22T11:08:21.275Z,4.73
2022-12-22T11:09:33.161Z,4.31
2022-12-22T11:10:36.960Z,4.33
2022-12-22T11:11:43.589Z,4.66
2022-12-22T11:13:04.976Z,4.72
2022-12-22T11:14:04.611Z,4.85
2022-12-22T11:15:11.967Z,4.81
2022-12-22T11:16:31.408Z,4.85
2022-12-22T11:17:39.378Z,5.24
2022-12-22T11:18:51.286Z,5.17
2022-12-22T11:20:02.698Z,5.26
2022-12-22T11:21:01.983Z,5.31
2022-12-22T11:22:10.699Z,5.39
2022-12-22T11:23:16.399Z,5.23
2022-12-22T11:24:34.679Z,5.28
2022-12-22T11:25:52.499Z,5.67
2022-12-22T11:26:51.685Z,5.38
2022-12-22T11:28:03.656Z,5.32
2022-12-22T11:29:15.472Z,5.42
2022-12-22T11:30:18.439Z,5.72
2022-12-22T11:31:33.880Z,5.36
2022-12-22T11:32:33.396Z,5.16
2022-12-22T11:33:56.502Z,4.89
2022-12-22T11:35:17.908Z,4.72
2022-12-22T11:36:26.379Z,4.74
2022-12-22T11:37:45.828Z,5.31
2022-12-22T11:38:50.319Z,5.08
2022-12-22T11:39:59.197Z,5.06
2022-12-22T11:41:05.441Z,5.04
2022-12-22T11:42:10.897Z,4.79
2022-12-22T11:43:17.875Z,4.96
2022-12-22T11:45:02.417Z,5.15
2022-12-22T11:46:13.947Z,5.27
2022-12-22T11:47:54.560Z,5.35
2022-12-22T11:48:58.129Z,5.52
2022-12-22T11:51:00.382Z,5.34
2022-12-22T11:51:54.240Z,5.25
2022-12-22T11:53:06.015Z,5.35
2022-12-22T11:54:23.629Z,5.84
2022-12-22T11:55:50.879Z,5.90
2022-12-22T11:57:39.788Z,5.96
2022-12-22T11:58:36.370Z,5.85
2022-12-22T12:00:03.655Z,5.98
2022-12-22T12:01:45.288Z,5.66
2022-12-22T12:03:14.406Z,5.41
2022-12-22T12:04:23.280Z,5.31
2022-12-22T12:05:57.892Z,5.38
2022-12-22T12:07:22.025Z,5.50
2022-12-22T12:08:34.645Z,5.38
2022-12-22T12:09:31.205Z,5.82
2022-12-22T12:10:32.735Z,5.87
2022-12-22T12:11:47.644Z,5.83
2022-12-22T12:13:00.142Z,5.88
2022-12-22T12:14:26.192Z,6.16
2022-12-22T12:15:29.875Z,5.65
2022-12-22T12:16:55.791Z,5.43
2022-12-22T12:18:27.599Z,5.77
2022-12-22T12:19:52.932Z,5.91
2022-12-22T12:21:18.261Z,5.98
2022-12-22T12:23:07.697Z,5.94
2022-12-22T12:24:16.015Z,5.92
2022-12-22T12:25:27.837Z,5.76
2022-12-22T12:26:49.862Z,5.97
2022-12-22T12:28:04.955Z,5.76
2022-12-22T12:29:13.131Z,5.88
2022-12-22T12:31:39.420Z,5.80
2022-12-22T12:32:56.273Z,6.08
2022-12-22T12:33:56.750Z,5.93
2022-12-22T12:35:02.696Z,6.04
2022-12-22T12:36:08.150Z,6.08
2022-12-22T12:37:13.287Z,5.95
2022-12-22T12:38:56.743Z,5.92
2022-12-22T12:39:38.245Z,6.22
2022-12-22T12:40:52.968Z,6.25
2022-12-22T12:41:49.568Z,6.56
2022-12-22T12:42:47.701Z,6.31
2022-12-22T12:43:45.613Z,6.46
2022-12-22T12:44:42.595Z,6.39
2022-12-22T12:45:44.107Z,6.27
2022-12-22T12:46:40.877Z,6.45
2022-12-22T12:47:38.477Z,6.67
2022-12-22T12:48:35.090Z,6.48
2022-12-22T12:49:34.515Z,6.33
2022-12-22T12:50:32.704Z,6.49
2022-12-22T12:51:49.595Z,6.74
2022-12-22T12:52:48.735Z,5.91
2022-12-22T12:54:43.744Z,5.99
2022-12-22T12:55:56.117Z,6.52
2022-12-22T12:57:00.785Z,6.25
2022-12-22T12:57:59.269Z,5.96
2022-12-22T12:58:58.042Z,6.13
2022-12-22T12:59:58.432Z,6.02
2022-12-22T13:00:58.825Z,5.98
2022-12-22T13:01:58.202Z,6.02
2022-12-22T13:03:52.908Z,5.76
2022-12-22T13:05:14.871Z,5.90
2022-12-22T13:06:57.709Z,5.63
2022-12-22T13:08:18.937Z,5.77
2022-12-22T13:10:48.888Z,5.75
2022-12-22T13:12:11.850Z,5.60
2022-12-22T13:13:02.566Z,5.42
2022-12-22T13:13:59.421Z,5.53
2022-12-22T13:15:01.441Z,5.37
2022-12-22T13:16:01.786Z,5.33
2022-12-22T13:17:34.160Z,5.31
2022-12-22T13:18:33.704Z,5.17
2022-12-22T13:19:31.010Z,4.91
2022-12-22T13:20:34.765Z,5.28
2022-12-22T13:21:53.027Z,4.88
2022-12-22T13:22:56.832Z,5.17
2022-12-22T13:25:17.023Z,5.35
2022-12-22T13:26:16.445Z,5.16
2022-12-22T13:27:13.179Z,5.07
2022-12-22T13:28:17.461Z,5.06
2022-12-22T13:29:24.285Z,5.09
2022-12-22T13:30:21.779Z,5.10
2022-12-22T13:31:46.176Z,5.09
2022-12-22T13:32:45.297Z,5.28
2022-12-22T13:33:44.905Z,4.91
2022-12-22T13:35:29.614Z,4.88
2022-12-22T13:36:20.187Z,4.99
2022-12-22T13:37:23.944Z,4.99
2022-12-22T13:38:30.970Z,4.47
2022-12-22T13:39:27.596Z,4.97
2022-12-22T13:40:39.625Z,4.96
2022-12-22T13:41:40.667Z,5.01
2022-12-22T13:42:45.322Z,5.18
2022-12-22T13:43:45.353Z,5.21
2022-12-22T13:44:42.725Z,5.17
2022-12-22T13:45:39.346Z,5.05
2022-12-22T13:46:37.716Z,4.73
2022-12-22T13:47:34.339Z,4.83
2022-12-22T13:48:43.576Z,4.85
2022-12-22T13:50:07.773Z,4.90
2022-12-22T13:51:04.348Z,4.91
2022-12-22T13:52:05.399Z,4.89
2022-12-22T13:53:04.035Z,5.09
2022-12-22T13:54:09.831Z,5.12
2022-12-22T13:55:14.631Z,5.05
2022-12-22T13:56:23.897Z,4.97
2022-12-22T13:57:22.394Z,4.94
2022-12-22T13:58:28.000Z,4.96
2022-12-22T13:59:30.687Z,4.85
2022-12-22T14:00:28.897Z,4.81
2022-12-22T14:01:26.228Z,4.76
2022-12-22T14:02:23.293Z,4.65
2022-12-22T14:03:50.001Z,4.48
2022-12-22T14:04:38.175Z,4.72
2022-12-22T14:05:34.756Z,4.81
2022-12-22T14:06:35.792Z,4.69
2022-12-22T14:07:32.581Z,4.34
2022-12-22T14:08:29.150Z,4.53
2022-12-22T14:09:27.225Z,4.59
2022-12-22T14:10:34.003Z,4.61
2022-12-22T14:11:31.536Z,4.55
2022-12-22T14:12:31.759Z,4.43
2022-12-22T14:13:32.218Z,4.32
2022-12-22T14:14:36.778Z,4.41
2022-12-22T14:15:33.940Z,4.44